Hawthorne, Louisiana
Current Conditions -  °F | °C
As of 12:58 PM on Friday 28 Nov 2014 (Local Time) from KPOE Reporting Station
Clear Clear  
Wind Chill: 61°   Ceiling: Unl
Heat Index: 61°   Visibility: 10mi
Dew Point: 43°   Wind: 8mph
Humidity: 53%   Direction: 170°S
Pressure: 30.27"   Gusts: NA
Location:  31.2063°N, 93.1344°W
Report Text: KPOE 281858Z AUTO 17007KT 140V220 10SM CLR 16/06 A3027 RMK AO2 SLP253 T01590062
Loading
Personal Weather Stations






























Interactive Weather Map New forecast layout! Learn more

10-Day Weather Forecast

Advertisements
Track Severe Weather on mobile